Time;durP1;ratioP1;P1;durP2;ratioP2;P2;SDS_P1;SDS_P2;PMS_P1;PMS_P2;Temp;Humidity;BMP_temperature;BMP_pressure;BME280_temperature;BME280_humidity;BME280_pressure;Samples;Min_cycle;Max_cycle;Signal;HPM_P1;HPM_P2
2022/01/18 00:01:36;;;;;;;5.60;1.40;;;;;;101060.23;;;;106571;1297;66497;-43
2022/01/18 00:04:04;;;;;;;4.50;1.20;;;;;;101062.64;;;;106510;1299;62496;-33
2022/01/18 00:06:32;;;;;;;4.90;1.40;;;;;;101062.57;;;;106577;1297;62646;-33
2022/01/18 00:08:59;;;;;;;4.70;1.20;;;;;;101061.85;;;;106595;1297;62646;-43
2022/01/18 00:11:29;;;;;;;4.10;1.20;;;;;;101063.46;;;;106507;1299;62832;-43
2022/01/18 00:14:03;;;;;;;3.80;1.50;;;;;;101067.16;;;;106505;1298;64934;-33
2022/01/18 00:16:37;;;;;;;4.90;1.20;;;;;;101066.71;;;;106577;1297;62553;-33
2022/01/18 00:19:10;;;;;;;3.50;1.50;;;;;;101075.09;;;;106573;1297;62650;-33
2022/01/18 00:22:08;;;;;;;4.40;1.20;;;;;;101076.20;;;;106497;1299;62491;-34
2022/01/18 00:24:40;;;;;;;4.30;1.50;;;;;;101077.85;;;;106513;1299;62527;-43
2022/01/18 00:27:13;;;;;;;5.30;1.60;;;;;;101074.18;;;;106580;1297;66517;-43
2022/01/18 00:30:49;;;;;;;3.20;1.10;;;;;;101068.12;;;;106568;1296;62601;-33
2022/01/18 00:35:19;;;;;;;3.80;1.10;;;;;;101079.34;;;;106421;1296;62797;-33
2022/01/18 00:37:55;;;;;;;4.80;1.50;;;;;;101081.58;;;;106592;1297;62571;-33
2022/01/18 00:40:22;;;;;;;3.50;1.40;;;;;;101086.15;;;;106517;1298;67582;-43
2022/01/18 00:42:50;;;;;;;3.40;1.10;;;;;;101088.20;;;;106485;1298;62665;-43
2022/01/18 00:45:17;;;;;;;4.70;1.10;;;;;;101091.48;;;;106497;1299;62577;-43
2022/01/18 00:47:46;;;;;;;4.50;1.30;;;;;;101094.35;;;;106495;1300;62611;-43
2022/01/18 00:50:13;;;;;;;4.00;1.60;;;;;;101108.09;;;;106599;1296;62535;-43
2022/01/18 00:52:49;;;;;;;4.80;1.10;;;;;;101109.58;;;;106587;1297;66174;-43
2022/01/18 00:55:17;;;;;;;4.40;1.40;;;;;;101110.30;;;;106516;1298;63011;-43
2022/01/18 00:57:44;;;;;;;3.70;1.30;;;;;;101119.20;;;;106556;1297;62662;-43
2022/01/18 01:00:12;;;;;;;5.60;1.40;;;;;;101124.22;;;;106503;1298;62680;-33
2022/01/18 01:02:39;;;;;;;4.10;1.30;;;;;;101131.52;;;;106288;1297;408113;-38
2022/01/18 01:05:07;;;;;;;3.80;1.30;;;;;;101133.23;;;;106581;1296;66509;-43
2022/01/18 01:07:37;;;;;;;4.80;1.40;;;;;;101137.02;;;;106556;1296;63028;-43
2022/01/18 01:10:05;;;;;;;4.30;1.40;;;;;;101141.05;;;;106566;1297;62533;-43
2022/01/18 01:12:32;;;;;;;4.50;1.40;;;;;;101144.31;;;;106569;1297;62696;-43
2022/01/18 01:15:07;;;;;;;4.50;1.30;;;;;;101142.56;;;;106515;1300;62572;-43
2022/01/18 01:17:48;;;;;;;4.20;1.20;;;;;;101146.96;;;;106571;1296;66921;-43
2022/01/18 01:37:15;;;;;;;5.20;1.50;;;;;;101170.08;;;;106323;1297;62657;-43
2022/01/18 01:45:10;;;;;;;4.50;1.80;;;;;;101183.43;;;;106593;1296;66242;-43
2022/01/18 01:47:40;;;;;;;4.40;1.50;;;;;;101182.70;;;;106504;1298;62563;-43
2022/01/18 01:50:17;;;;;;;5.00;1.90;;;;;;101180.34;;;;106578;1296;62547;-34
2022/01/18 01:52:49;;;;;;;4.70;1.60;;;;;;101179.25;;;;106581;1296;62676;-32
2022/01/18 01:55:18;;;;;;;3.70;1.30;;;;;;101179.99;;;;106462;1299;62579;-33
2022/01/18 01:57:45;;;;;;;4.80;2.10;;;;;;101182.98;;;;106599;1296;66575;-33
2022/01/18 02:00:19;;;;;;;4.20;1.70;;;;;;101184.15;;;;106502;1299;62571;-43
2022/01/18 02:02:46;;;;;;;4.40;1.80;;;;;;101186.38;;;;106444;1299;62577;-43
2022/01/18 02:05:15;;;;;;;5.30;2.00;;;;;;101179.31;;;;106564;1296;62670;-43
2022/01/18 02:07:42;;;;;;;5.00;1.90;;;;;;101176.69;;;;106591;1296;62558;-43
2022/01/18 02:10:10;;;;;;;5.40;1.80;;;;;;101182.27;;;;106470;1297;64934;-34
2022/01/18 02:12:40;;;;;;;5.70;2.10;;;;;;101188.08;;;;106428;1297;62704;-34
2022/01/18 02:15:19;;;;;;;4.90;1.80;;;;;;101193.86;;;;106574;1296;63388;-43
2022/01/18 02:23:30;;;;;;;5.00;1.90;;;;;;101184.84;;;;106492;1297;68231;-33
2022/01/18 02:26:00;;;;;;;5.40;1.80;;;;;;101187.19;;;;106556;1297;63517;-34
2022/01/18 02:28:30;;;;;;;4.50;1.80;;;;;;101188.84;;;;106563;1296;63392;-36
2022/01/18 02:31:00;;;;;;;4.10;1.80;;;;;;101190.95;;;;106493;1298;63383;-45
2022/01/18 02:33:33;;;;;;;4.80;1.90;;;;;;101190.17;;;;106574;1297;63414;-36
2022/01/18 02:36:01;;;;;;;7.40;2.40;;;;;;101193.26;;;;106604;1297;67732;-33
2022/01/18 02:38:29;;;;;;;4.70;1.90;;;;;;101196.38;;;;106435;1297;63493;-36
2022/01/18 02:40:58;;;;;;;5.00;1.80;;;;;;101195.91;;;;106504;1299;63498;-33
2022/01/18 02:46:11;;;;;;;5.60;2.20;;;;;;101204.54;;;;106571;1297;63369;-33
2022/01/18 02:48:38;;;;;;;4.90;1.70;;;;;;101209.08;;;;106559;1296;67004;-34
2022/01/18 02:51:09;;;;;;;4.30;2.00;;;;;;101209.77;;;;106560;1297;63509;-33
2022/01/18 02:54:14;;;;;;;5.00;1.90;;;;;;101212.60;;;;106418;1299;63369;-33
2022/01/18 02:56:52;;;;;;;4.20;1.70;;;;;;101217.80;;;;106043;1306;63478;-33
2022/01/18 03:05:15;;;;;;;3.80;1.70;;;;;;101212.42;;;;106464;1297;63395;-33
2022/01/18 03:07:43;;;;;;;4.30;1.80;;;;;;101211.11;;;;106568;1297;63505;-34
2022/01/18 03:10:13;;;;;;;4.80;2.00;;;;;;101207.93;;;;106547;1296;63507;-43
2022/01/18 03:12:40;;;;;;;5.90;2.20;;;;;;101212.14;;;;106504;1300;63342;-43
2022/01/18 03:15:08;;;;;;;5.20;1.80;;;;;;101214.00;;;;106582;1294;66024;-34
2022/01/18 03:17:39;;;;;;;4.60;1.90;;;;;;101217.89;;;;106479;1298;63471;-34
2022/01/18 03:20:10;;;;;;;4.80;2.10;;;;;;101216.38;;;;106492;1299;63755;-43
2022/01/18 03:22:38;;;;;;;5.80;2.10;;;;;;101218.52;;;;106562;1296;64033;-43
2022/01/18 03:25:25;;;;;;;4.70;1.80;;;;;;101222.46;;;;106605;1297;63368;-33
2022/01/18 03:28:05;;;;;;;4.20;1.80;;;;;;101225.14;;;;106493;1299;68113;-33
2022/01/18 03:30:34;;;;;;;4.90;1.90;;;;;;101230.81;;;;106537;1297;63321;-43
2022/01/18 03:33:04;;;;;;;4.80;1.80;;;;;;101234.98;;;;106570;1296;63429;-43
2022/01/18 03:35:31;;;;;;;4.50;1.80;;;;;;101235.26;;;;106572;1296;63475;-43
2022/01/18 03:37:59;;;;;;;4.30;2.00;;;;;;101235.75;;;;106596;1296;63341;-43
2022/01/18 03:40:30;;;;;;;4.80;2.20;;;;;;101238.55;;;;106579;1297;66095;-33
2022/01/18 03:43:01;;;;;;;4.60;1.80;;;;;;101241.84;;;;106584;1297;63534;-33
2022/01/18 03:45:40;;;;;;;6.70;2.30;;;;;;101248.68;;;;106573;1297;63426;-33
2022/01/18 03:48:15;;;;;;;5.60;2.30;;;;;;101251.36;;;;106563;1297;63431;-34
2022/01/18 03:50:45;;;;;;;4.80;2.00;;;;;;101252.14;;;;106600;1297;63347;-33
2022/01/18 03:53:12;;;;;;;5.20;2.10;;;;;;101259.73;;;;106573;1297;68208;-37
2022/01/18 03:55:39;;;;;;;5.10;2.30;;;;;;101261.89;;;;106566;1297;63483;-43
2022/01/18 03:58:06;;;;;;;5.60;2.10;;;;;;101266.34;;;;106568;1297;63534;-43
2022/01/18 04:00:34;;;;;;;5.00;2.00;;;;;;101270.95;;;;106559;1297;63331;-33
2022/01/18 04:03:01;;;;;;;4.50;1.90;;;;;;101272.46;;;;106479;1297;63390;-33
2022/01/18 04:05:31;;;;;;;4.70;2.00;;;;;;101275.63;;;;106589;1297;67309;-34
2022/01/18 04:07:59;;;;;;;4.10;1.60;;;;;;101281.91;;;;106464;1299;63395;-33
2022/01/18 04:10:26;;;;;;;5.70;2.30;;;;;;101285.57;;;;106452;1298;63458;-43
2022/01/18 04:12:56;;;;;;;5.40;2.20;;;;;;101292.16;;;;106498;1297;63749;-43
2022/01/18 04:15:23;;;;;;;5.10;2.10;;;;;;101295.94;;;;106577;1296;63624;-43
2022/01/18 04:26:04;;;;;;;4.90;1.90;;;;;;101302.43;;;;106434;1299;63403;-33
2022/01/18 04:31:01;;;;;;;4.50;1.80;;;;;;101318.52;;;;106464;1298;66976;-34
2022/01/18 04:33:30;;;;;;;5.10;2.10;;;;;;101325.98;;;;106468;1298;63334;-39
2022/01/18 04:35:58;;;;;;;5.90;1.90;;;;;;101331.76;;;;106476;1299;63532;-44
2022/01/18 04:38:25;;;;;;;4.60;1.90;;;;;;101331.17;;;;106461;1300;63769;-43
2022/01/18 04:40:53;;;;;;;6.30;2.40;;;;;;101334.49;;;;106577;1297;63393;-43
2022/01/18 04:48:37;;;;;;;4.90;1.80;;;;;;101346.45;;;;106430;1300;63331;-42
2022/01/18 04:51:10;;;;;;;4.30;2.00;;;;;;101351.98;;;;106541;1296;63339;-43
2022/01/18 04:53:55;;;;;;;4.00;1.70;;;;;;101357.03;;;;106594;1296;63421;-34
2022/01/18 04:59:05;;;;;;;4.10;1.70;;;;;;101364.24;;;;106577;1297;63527;-43
2022/01/18 05:01:38;;;;;;;5.00;2.20;;;;;;101368.81;;;;106462;1298;63439;-43
2022/01/18 05:04:06;;;;;;;4.10;1.60;;;;;;101379.20;;;;106569;1297;63444;-43
2022/01/18 05:06:34;;;;;;;4.10;1.70;;;;;;101388.63;;;;106583;1296;63309;-36
2022/01/18 05:09:07;;;;;;;4.20;1.60;;;;;;101395.58;;;;106573;1297;66925;-43
2022/01/18 05:11:41;;;;;;;5.90;2.30;;;;;;101398.23;;;;106551;1297;63469;-44
2022/01/18 05:24:26;;;;;;;5.40;2.40;;;;;;101398.58;;;;106490;1299;63337;-48
2022/01/18 05:26:54;;;;;;;;;;;;;;101399.23;;;;106567;1297;63354;-43
2022/01/18 05:29:22;;;;;;;4.80;2.00;;;;;;101392.27;;;;106575;1297;63481;-40
2022/01/18 05:31:50;;;;;;;5.90;2.30;;;;;;101392.63;;;;106488;1299;63442;-34
2022/01/18 05:34:18;;;;;;;5.10;2.00;;;;;;101393.09;;;;106604;1296;67544;-43
2022/01/18 05:36:45;;;;;;;4.70;1.90;;;;;;101395.19;;;;106449;1298;63359;-43
2022/01/18 05:39:13;;;;;;;4.60;1.90;;;;;;101387.73;;;;106425;1299;63410;-44
2022/01/18 05:41:43;;;;;;;5.10;2.10;;;;;;101390.52;;;;106435;1299;63517;-43
2022/01/18 05:44:11;;;;;;;5.20;2.00;;;;;;101389.50;;;;106478;1297;63416;-34
2022/01/18 05:46:38;;;;;;;4.60;1.90;;;;;;101395.39;;;;106581;1297;66949;-33
2022/01/18 05:49:08;;;;;;;5.40;2.20;;;;;;101398.33;;;;106466;1298;63591;-43
2022/01/18 05:51:37;;;;;;;5.20;2.00;;;;;;101391.27;;;;106461;1297;63369;-34
2022/01/18 05:54:08;;;;;;;5.40;1.90;;;;;;101395.52;;;;106467;1299;63443;-33
2022/01/18 05:56:38;;;;;;;5.30;2.20;;;;;;101394.45;;;;106593;1297;63377;-34
2022/01/18 05:59:06;;;;;;;5.30;2.10;;;;;;101398.99;;;;106491;1299;66941;-43
2022/01/18 06:01:38;;;;;;;5.50;2.20;;;;;;101399.27;;;;106448;1297;63491;-43
2022/01/18 06:04:12;;;;;;;4.40;1.80;;;;;;101401.54;;;;106591;1297;63456;-43
2022/01/18 06:06:53;;;;;;;5.10;2.10;;;;;;101401.80;;;;106566;1294;63481;-43
2022/01/18 06:09:22;;;;;;;5.20;2.10;;;;;;101403.56;;;;106591;1297;63414;-43
2022/01/18 06:11:50;;;;;;;5.20;2.20;;;;;;101404.63;;;;106453;1300;67116;-43
2022/01/18 06:14:18;;;;;;;4.80;1.90;;;;;;101409.98;;;;106456;1299;63532;-43
2022/01/18 06:16:48;;;;;;;5.10;2.60;;;;;;101410.44;;;;106447;1297;63381;-43
2022/01/18 06:19:16;;;;;;;5.30;2.20;;;;;;101412.61;;;;106579;1297;63486;-33
2022/01/18 06:21:43;;;;;;;4.80;1.60;;;;;;101413.98;;;;106598;1297;63403;-36
2022/01/18 06:24:11;;;;;;;6.10;2.10;;;;;;101414.42;;;;106449;1297;67337;-33
2022/01/18 06:26:41;;;;;;;5.40;2.20;;;;;;101420.33;;;;106447;1300;63491;-35
2022/01/18 06:29:09;;;;;;;5.90;2.20;;;;;;101419.77;;;;106583;1297;63334;-34
2022/01/18 06:31:36;;;;;;;4.60;2.00;;;;;;101429.42;;;;106560;1297;63528;-35
2022/01/18 06:34:03;;;;;;;4.80;2.00;;;;;;101427.41;;;;106479;1298;63310;-33
2022/01/18 06:36:30;;;;;;;5.00;1.90;;;;;;101439.45;;;;106465;1297;65976;-33
2022/01/18 06:38:57;;;;;;;6.70;2.00;;;;;;101438.88;;;;106568;1297;63612;-34
2022/01/18 06:41:24;;;;;;;5.50;2.10;;;;;;101439.56;;;;106449;1298;63290;-42
2022/01/18 06:43:51;;;;;;;6.90;2.60;;;;;;101438.30;;;;106540;1297;63459;-33
2022/01/18 06:46:18;;;;;;;4.90;2.10;;;;;;101443.38;;;;106581;1297;63329;-34
2022/01/18 06:48:46;;;;;;;7.10;2.10;;;;;;101450.11;;;;106586;1297;67290;-43
2022/01/18 06:51:14;;;;;;;6.00;2.50;;;;;;101455.08;;;;106575;1297;63411;-43
2022/01/18 06:53:46;;;;;;;5.60;2.20;;;;;;101461.26;;;;106574;1297;63434;-34
2022/01/18 06:56:15;;;;;;;5.80;2.00;;;;;;101456.75;;;;106537;1297;63520;-37
2022/01/18 06:58:43;;;;;;;5.20;2.20;;;;;;101454.31;;;;106589;1297;63392;-33
2022/01/18 07:01:12;;;;;;;6.00;2.20;;;;;;101460.91;;;;106442;1299;67376;-33
2022/01/18 07:03:40;;;;;;;8.10;2.10;;;;;;101468.38;;;;106565;1297;63588;-42
2022/01/18 07:06:08;;;;;;;5.90;2.10;;;;;;101476.73;;;;106575;1296;63432;-36
2022/01/18 07:08:39;;;;;;;5.90;2.30;;;;;;101478.09;;;;106584;1297;63406;-42
2022/01/18 07:11:07;;;;;;;5.80;2.20;;;;;;101473.42;;;;106447;1299;63378;-43
2022/01/18 07:13:34;;;;;;;5.50;1.90;;;;;;101479.94;;;;106464;1298;67061;-43
2022/01/18 07:16:02;;;;;;;5.70;2.20;;;;;;101481.04;;;;106442;1298;63452;-45
2022/01/18 07:18:29;;;;;;;5.70;2.30;;;;;;101484.21;;;;106570;1296;63397;-40
2022/01/18 07:20:56;;;;;;;4.70;1.70;;;;;;101486.64;;;;106462;1299;63526;-33
2022/01/18 07:23:23;;;;;;;5.70;1.50;;;;;;101488.10;;;;106447;1299;63390;-34
2022/01/18 07:25:52;;;;;;;5.00;2.20;;;;;;101490.34;;;;106574;1297;65380;-43
2022/01/18 07:28:20;;;;;;;5.80;1.90;;;;;;101493.25;;;;106463;1299;63383;-43
2022/01/18 07:30:50;;;;;;;5.70;2.10;;;;;;101500.29;;;;106585;1297;63441;-33
2022/01/18 07:33:18;;;;;;;4.60;1.80;;;;;;101505.55;;;;106555;1297;63431;-33
2022/01/18 07:35:46;;;;;;;5.80;2.00;;;;;;101508.59;;;;106495;1298;63362;-47
2022/01/18 07:38:17;;;;;;;5.50;2.10;;;;;;101513.55;;;;106583;1297;67204;-44
2022/01/18 07:40:52;;;;;;;4.80;1.70;;;;;;101520.34;;;;106451;1299;63411;-43
2022/01/18 07:43:19;;;;;;;4.00;1.70;;;;;;101524.48;;;;106474;1299;63315;-43
2022/01/18 07:45:51;;;;;;;5.30;1.90;;;;;;101533.26;;;;106586;1296;63487;-33
2022/01/18 07:48:23;;;;;;;4.70;2.00;;;;;;101540.17;;;;106568;1297;63356;-35
2022/01/18 07:50:57;;;;;;;4.40;1.70;;;;;;101544.23;;;;106444;1300;67424;-39
2022/01/18 07:53:27;;;;;;;5.30;1.90;;;;;;101549.67;;;;106466;1297;63489;-36
2022/01/18 07:55:55;;;;;;;4.30;2.20;;;;;;101549.03;;;;106454;1300;63451;-43
2022/01/18 07:58:22;;;;;;;5.40;1.90;;;;;;101551.09;;;;106580;1296;63502;-43
2022/01/18 08:00:49;;;;;;;4.90;1.70;;;;;;101556.35;;;;106467;1298;63379;-34
2022/01/18 08:03:17;;;;;;;4.90;2.00;;;;;;101553.86;;;;106571;1297;67054;-34
2022/01/18 08:05:45;;;;;;;4.20;1.70;;;;;;101559.05;;;;106478;1299;63501;-35
2022/01/18 08:08:12;;;;;;;5.90;2.20;;;;;;101567.92;;;;106560;1297;63331;-35
2022/01/18 08:10:39;;;;;;;4.30;1.70;;;;;;101571.56;;;;106466;1299;63403;-34
2022/01/18 08:13:07;;;;;;;4.40;1.90;;;;;;101571.73;;;;106459;1297;63372;-35
2022/01/18 08:15:39;;;;;;;3.70;1.50;;;;;;101575.45;;;;106598;1297;65533;-35
2022/01/18 08:18:12;;;;;;;4.40;1.80;;;;;;101583.14;;;;106475;1299;63449;-39
2022/01/18 08:20:40;;;;;;;5.50;1.90;;;;;;101586.94;;;;106587;1297;63484;-33
2022/01/18 08:23:07;;;;;;;4.90;1.90;;;;;;101587.23;;;;106500;1299;63495;-32
2022/01/18 08:25:39;;;;;;;4.80;1.70;;;;;;101588.29;;;;106507;1300;63286;-43
2022/01/18 08:28:06;;;;;;;4.60;1.80;;;;;;101590.00;;;;106492;1298;66893;-43
2022/01/18 08:30:33;;;;;;;5.60;1.70;;;;;;101589.25;;;;106567;1297;63530;-34
2022/01/18 08:33:00;;;;;;;4.80;1.70;;;;;;101599.23;;;;106585;1297;63408;-33
2022/01/18 08:35:28;;;;;;;5.20;1.70;;;;;;101602.56;;;;106480;1299;63392;-43
2022/01/18 08:37:55;;;;;;;4.30;1.70;;;;;;101608.69;;;;106468;1298;63390;-45
2022/01/18 08:40:22;;;;;;;4.30;1.70;;;;;;101613.52;;;;106473;1299;67205;-46
2022/01/18 08:42:49;;;;;;;4.50;1.90;;;;;;101624.06;;;;106471;1298;63475;-43
2022/01/18 08:45:16;;;;;;;4.30;1.80;;;;;;101628.19;;;;106480;1298;63477;-35
2022/01/18 08:47:48;;;;;;;5.00;2.10;;;;;;101630.74;;;;106456;1299;63443;-35
2022/01/18 08:50:17;;;;;;;3.40;1.40;;;;;;101635.76;;;;106479;1299;63433;-43
2022/01/18 08:52:48;;;;;;;4.70;1.70;;;;;;101637.37;;;;106433;1298;66106;-43
2022/01/18 08:55:15;;;;;;;4.30;1.40;;;;;;101654.77;;;;106444;1300;63638;-43
2022/01/18 08:57:42;;;;;;;4.90;1.90;;;;;;101651.02;;;;106472;1299;63435;-43
2022/01/18 09:00:10;;;;;;;4.00;1.60;;;;;;101665.46;;;;106464;1298;63482;-34
2022/01/18 09:02:37;;;;;;;4.30;2.00;;;;;;101673.22;;;;105859;1298;851809;-34
2022/01/18 09:05:05;;;;;;;5.00;1.80;;;;;;101689.99;;;;106580;1297;65720;-38
2022/01/18 09:07:37;;;;;;;4.50;1.90;;;;;;101684.48;;;;106470;1299;63406;-34
2022/01/18 09:10:07;;;;;;;4.40;1.60;;;;;;101688.58;;;;106565;1297;63262;-43
2022/01/18 09:12:34;;;;;;;5.20;1.70;;;;;;101688.39;;;;106439;1297;63423;-46
2022/01/18 09:15:05;;;;;;;4.90;1.70;;;;;;101698.33;;;;106468;1297;63652;-38
2022/01/18 09:17:35;;;;;;;4.00;1.40;;;;;;101696.27;;;;106491;1297;67049;-40
2022/01/18 09:20:08;;;;;;;5.40;1.60;;;;;;101698.73;;;;106544;1296;63869;-36
2022/01/18 09:22:39;;;;;;;3.90;1.50;;;;;;101701.23;;;;106576;1297;63884;-32
2022/01/18 09:25:18;;;;;;;3.90;1.50;;;;;;101699.22;;;;106453;1299;63436;-43
2022/01/18 09:27:46;;;;;;;4.00;1.60;;;;;;101698.77;;;;106560;1297;63354;-39
2022/01/18 09:30:14;;;;;;;4.30;1.90;;;;;;101703.16;;;;106561;1297;66116;-35
2022/01/18 09:32:44;;;;;;;4.50;1.80;;;;;;101703.98;;;;106456;1297;63388;-34
2022/01/18 09:35:13;;;;;;;4.70;1.80;;;;;;101709.01;;;;106559;1297;63387;-41
2022/01/18 09:37:42;;;;;;;4.80;2.00;;;;;;101710.46;;;;106459;1299;63461;-31
2022/01/18 09:40:10;;;;;;;4.60;1.70;;;;;;101710.64;;;;106468;1299;63518;-32
2022/01/18 09:42:40;;;;;;;5.40;1.80;;;;;;101721.02;;;;106589;1297;65457;-35
2022/01/18 09:45:11;;;;;;;3.70;1.50;;;;;;101720.35;;;;106575;1297;63531;-41
2022/01/18 09:47:42;;;;;;;4.20;1.70;;;;;;101730.98;;;;106565;1296;63516;-43
2022/01/18 09:50:12;;;;;;;4.40;1.60;;;;;;101735.39;;;;106470;1299;63478;-43
2022/01/18 09:52:40;;;;;;;4.60;1.90;;;;;;101736.49;;;;106493;1299;63359;-34
2022/01/18 09:55:08;;;;;;;5.40;1.90;;;;;;101733.40;;;;106419;1299;65848;-42
2022/01/18 09:57:37;;;;;;;4.80;2.00;;;;;;101739.47;;;;106467;1299;63899;-42
2022/01/18 10:00:09;;;;;;;5.00;1.80;;;;;;101744.85;;;;106445;1299;63396;-42
2022/01/18 10:02:36;;;;;;;4.40;1.80;;;;;;101745.30;;;;106479;1299;63437;-42
2022/01/18 10:05:28;;;;;;;4.30;1.80;;;;;;101747.26;;;;106501;1299;63403;-38
2022/01/18 10:08:12;;;;;;;4.50;1.80;;;;;;101745.10;;;;106479;1300;68217;-34
2022/01/18 10:10:47;;;;;;;4.90;1.60;;;;;;101747.92;;;;106541;1297;63415;-45
2022/01/18 10:13:29;;;;;;;5.90;1.80;;;;;;101744.85;;;;106438;1299;63357;-43
2022/01/18 10:16:14;;;;;;;4.50;1.60;;;;;;101747.25;;;;106439;1297;63542;-43
2022/01/18 10:18:55;;;;;;;5.20;1.90;;;;;;101747.52;;;;106503;1299;63838;-38
2022/01/18 10:21:45;;;;;;;4.50;1.80;;;;;;101751.03;;;;106574;1297;66992;-34
2022/01/18 10:24:15;;;;;;;5.90;2.00;;;;;;101754.13;;;;106544;1296;63468;-31
2022/01/18 10:26:46;;;;;;;4.60;1.60;;;;;;101757.71;;;;106441;1297;63453;-37
2022/01/18 10:29:16;;;;;;;5.20;1.80;;;;;;101763.59;;;;106454;1297;63511;-47
2022/01/18 10:37:10;;;;;;;4.80;1.90;;;;;;101778.52;;;;106549;1297;63448;-33
2022/01/18 10:39:38;;;;;;;4.90;1.80;;;;;;101781.61;;;;106487;1298;63339;-42
2022/01/18 10:42:23;;;;;;;4.70;1.70;;;;;;101788.75;;;;106565;1297;63316;-43
2022/01/18 10:45:12;;;;;;;4.50;1.70;;;;;;101794.54;;;;106482;1299;63350;-32
2022/01/18 10:47:57;;;;;;;5.10;1.90;;;;;;101797.50;;;;106431;1299;66853;-32
2022/01/18 10:50:26;;;;;;;4.40;1.70;;;;;;101800.76;;;;106463;1298;63394;-31
2022/01/18 10:52:53;;;;;;;5.80;1.90;;;;;;101800.47;;;;106479;1299;63481;-34
2022/01/18 10:55:24;;;;;;;4.30;1.80;;;;;;101799.98;;;;106581;1297;63356;-32
2022/01/18 10:57:52;;;;;;;6.50;2.40;;;;;;101804.39;;;;106587;1297;63778;-43
2022/01/18 11:00:24;;;;;;;4.50;1.90;;;;;;101800.23;;;;106578;1296;66913;-43
2022/01/18 11:02:54;;;;;;;6.30;2.00;;;;;;101800.36;;;;106565;1297;63519;-43
2022/01/18 11:05:25;;;;;;;5.60;2.20;;;;;;101802.66;;;;106472;1298;63378;-37
2022/01/18 11:07:55;;;;;;;4.70;1.80;;;;;;101806.82;;;;106554;1296;63479;-33
2022/01/18 11:10:26;;;;;;;6.10;2.80;;;;;;101810.45;;;;106475;1299;63405;-43
2022/01/18 11:13:04;;;;;;;7.10;2.40;;;;;;101814.09;;;;106476;1299;67854;-43
2022/01/18 11:15:35;;;;;;;4.80;2.30;;;;;;101817.59;;;;106541;1297;63430;-43
2022/01/18 11:18:07;;;;;;;5.70;2.50;;;;;;101815.38;;;;106546;1297;63470;-43
2022/01/18 11:20:39;;;;;;;5.80;2.10;;;;;;101815.77;;;;106530;1296;63479;-34
2022/01/18 11:23:07;;;;;;;4.90;2.00;;;;;;101815.93;;;;106506;1297;63530;-31
2022/01/18 11:25:37;;;;;;;6.30;2.70;;;;;;101814.21;;;;106565;1297;66994;-43
2022/01/18 11:28:07;;;;;;;5.80;2.10;;;;;;101813.20;;;;106411;1297;63409;-43
2022/01/18 11:30:39;;;;;;;6.20;2.30;;;;;;101813.01;;;;106487;1298;63455;-42
2022/01/18 11:33:11;;;;;;;5.70;2.60;;;;;;101816.02;;;;106466;1297;63496;-43
2022/01/18 11:35:46;;;;;;;5.70;2.50;;;;;;101819.56;;;;106496;1297;63448;-43
2022/01/18 11:38:40;;;;;;;6.60;2.30;;;;;;101819.35;;;;106439;1297;68631;-42
2022/01/18 11:41:20;;;;;;;7.40;2.40;;;;;;101824.89;;;;106458;1299;63419;-42
2022/01/18 11:43:51;;;;;;;5.40;2.60;;;;;;101832.90;;;;106486;1297;63537;-34
2022/01/18 11:46:24;;;;;;;5.50;2.20;;;;;;101829.45;;;;106546;1297;63553;-35
2022/01/18 11:49:27;;;;;;;5.60;2.10;;;;;;101833.99;;;;106570;1297;63359;-43
2022/01/18 11:52:09;;;;;;;7.00;2.40;;;;;;101838.68;;;;106500;1299;68269;-36
2022/01/18 11:57:22;;;;;;;6.00;2.20;;;;;;101833.76;;;;106484;1299;64014;-43
2022/01/18 11:59:58;;;;;;;4.60;1.90;;;;;;101833.23;;;;106487;1299;63446;-43
2022/01/18 12:02:34;;;;;;;5.90;2.00;;;;;;101830.27;;;;106527;1299;63439;-42
2022/01/18 12:05:17;;;;;;;5.50;1.90;;;;;;101830.70;;;;106460;1299;68734;-44
2022/01/18 12:07:44;;;;;;;5.30;2.20;;;;;;101832.59;;;;106469;1298;63990;-44
2022/01/18 12:10:33;;;;;;;5.00;2.00;;;;;;101828.25;;;;106513;1298;63459;-37
2022/01/18 12:13:10;;;;;;;6.00;2.10;;;;;;101832.59;;;;106555;1296;63382;-33
2022/01/18 12:15:45;;;;;;;4.80;2.00;;;;;;101835.52;;;;106588;1297;63446;-32
2022/01/18 12:18:15;;;;;;;4.30;1.90;;;;;;101837.84;;;;106567;1296;67729;-33
2022/01/18 12:20:48;;;;;;;7.00;2.40;;;;;;101841.19;;;;106542;1297;63397;-34
2022/01/18 12:23:40;;;;;;;5.90;2.40;;;;;;101840.08;;;;106549;1296;63479;-42
2022/01/18 12:34:29;;;;;;;;;;;;;;101864.60;;;;106456;1297;63466;-32
2022/01/18 12:37:05;;;;;;;6.20;2.20;;;;;;101865.41;;;;106574;1297;63390;-32
2022/01/18 12:39:53;;;;;;;5.90;2.20;;;;;;101866.23;;;;106496;1298;63477;-43
2022/01/18 12:45:16;;;;;;;4.70;1.90;;;;;;101875.34;;;;106571;1297;68555;-43
2022/01/18 12:47:54;;;;;;;5.00;2.10;;;;;;101873.30;;;;106449;1299;63519;-43
2022/01/18 12:50:45;;;;;;;5.40;2.30;;;;;;101879.54;;;;106563;1297;63478;-43
2022/01/18 12:53:20;;;;;;;5.50;2.40;;;;;;101881.69;;;;106514;1300;63407;-33
2022/01/18 12:55:54;;;;;;;5.60;2.30;;;;;;101873.46;;;;106586;1296;63512;-44
2022/01/18 12:58:34;;;;;;;5.60;2.40;;;;;;101875.11;;;;106529;1298;68395;-43
2022/01/18 13:01:10;;;;;;;5.00;2.00;;;;;;101877.93;;;;106534;1297;63373;-43
2022/01/18 13:03:45;;;;;;;6.20;2.30;;;;;;101883.47;;;;106498;1298;63418;-34
2022/01/18 13:06:18;;;;;;;5.70;2.30;;;;;;101890.33;;;;106576;1297;63415;-33
2022/01/18 13:08:54;;;;;;;7.00;2.60;;;;;;101888.75;;;;106593;1296;63394;-43
2022/01/18 13:11:25;;;;;;;6.10;2.30;;;;;;101892.16;;;;106461;1299;68487;-42
2022/01/18 13:14:03;;;;;;;5.70;2.20;;;;;;101892.08;;;;106571;1294;63395;-42
2022/01/18 13:27:28;;;;;;;6.40;2.30;;;;;;101894.36;;;;106448;1297;63582;-39
2022/01/18 13:30:19;;;;;;;4.80;2.20;;;;;;101898.63;;;;106479;1299;63402;-41
2022/01/18 13:32:48;;;;;;;6.60;2.50;;;;;;101908.78;;;;106496;1299;63438;-41
2022/01/18 13:38:23;;;;;;;6.10;2.50;;;;;;101914.77;;;;106480;1299;66848;-42
2022/01/18 13:40:54;;;;;;;5.30;2.30;;;;;;101910.98;;;;106492;1298;63473;-42
2022/01/18 13:43:25;;;;;;;5.10;2.10;;;;;;101910.26;;;;106486;1298;63371;-43
2022/01/18 13:45:53;;;;;;;5.60;2.10;;;;;;101911.17;;;;106487;1299;63520;-34
2022/01/18 13:48:33;;;;;;;4.40;2.00;;;;;;101915.52;;;;106535;1299;63390;-41
2022/01/18 13:51:14;;;;;;;5.40;2.30;;;;;;101915.38;;;;106465;1297;66815;-39
2022/01/18 13:53:42;;;;;;;5.10;2.20;;;;;;101911.34;;;;106451;1297;63392;-39
2022/01/18 13:56:17;;;;;;;5.80;2.10;;;;;;101913.38;;;;106574;1297;64006;-39
2022/01/18 13:58:53;;;;;;;5.40;2.00;;;;;;101916.06;;;;106456;1297;63859;-42
2022/01/18 14:01:26;;;;;;;4.90;2.00;;;;;;101914.65;;;;106495;1299;63397;-38
2022/01/18 14:04:00;;;;;;;5.10;2.40;;;;;;101918.57;;;;106512;1298;67934;-33
2022/01/18 14:06:40;;;;;;;5.80;2.10;;;;;;101924.72;;;;106554;1297;63436;-33
2022/01/18 14:09:09;;;;;;;5.70;2.20;;;;;;101933.95;;;;106553;1297;63503;-32
2022/01/18 14:11:38;;;;;;;6.20;2.00;;;;;;101935.38;;;;106436;1297;63504;-40
2022/01/18 14:14:33;;;;;;;5.00;2.50;;;;;;101937.52;;;;106515;1298;63439;-41
2022/01/18 14:17:04;;;;;;;5.30;2.10;;;;;;101940.59;;;;106569;1296;68254;-43
2022/01/18 14:19:41;;;;;;;5.50;2.00;;;;;;101946.01;;;;106551;1297;63453;-32
2022/01/18 14:22:23;;;;;;;4.80;1.90;;;;;;101952.90;;;;106583;1297;63367;-36
2022/01/18 14:24:54;;;;;;;5.70;2.40;;;;;;101957.64;;;;106569;1297;63453;-39
2022/01/18 14:27:25;;;;;;;5.40;2.00;;;;;;101959.89;;;;106518;1298;63351;-43
2022/01/18 14:29:58;;;;;;;5.30;2.30;;;;;;101960.29;;;;106459;1297;67165;-43
2022/01/18 14:32:36;;;;;;;4.90;2.30;;;;;;101957.28;;;;106496;1299;63489;-43
2022/01/18 14:35:39;;;;;;;5.00;2.50;;;;;;101963.41;;;;106534;1297;63480;-43
2022/01/18 14:38:12;;;;;;;4.70;2.50;;;;;;101969.39;;;;106475;1298;63504;-43
2022/01/18 14:40:47;;;;;;;5.90;2.30;;;;;;101969.61;;;;106593;1297;63445;-40
2022/01/18 14:43:31;;;;;;;6.80;2.50;;;;;;101975.17;;;;106442;1297;68134;-34
2022/01/18 14:46:06;;;;;;;6.40;2.40;;;;;;101975.52;;;;106514;1299;63544;-35
2022/01/18 14:48:36;;;;;;;5.20;2.60;;;;;;101973.90;;;;106508;1298;63491;-35
2022/01/18 14:51:03;;;;;;;6.70;2.50;;;;;;101969.30;;;;106569;1297;63416;-35
2022/01/18 14:53:31;;;;;;;5.20;2.30;;;;;;101971.36;;;;106495;1297;63395;-42